Logo AVAMET
Benvolgut visitant, si us plau, ingressa Recuperar contrasenya

Pedreguer Ocaive

Dades diàries. Acumulats / Últims 30 dies disponibles

Data Temperatura (°C) Humitat rel. (%) Pressió rel. (hPa) Vent (km/h) Precipitació
Mínima Mitjana Màxima Amplitud
tèrmica
Mínima Mitjana Màxima Mínima Mitjana Màxima Predom. Mitjana Ràfega
màxima
Total
(mm)
Índex-n
Mínima Mitjana Màxima Mínima Mitjana Màxima n
0 a 1
P0 max
mm 5'
Dades mensuals acumulades fins l'últim dia disponible
11/2019 7,7 13,2 19,4 16,7 15,0 20,4 26,9 19,2 29 53 92 1.000 1.010 1.020   7,9 56,3 4,4
Dades anuals acumulades fins l'últim dia disponible
2019 1,2 13,9 26,6 18,7 10,6 23,5 39,4 38,2 16 68 99 994 1.017 1.036   5,0 74,0 751,0
Últims 30 dies disponibles
15-11-2019 7,7     11,3     15,0 7,3 41 56 72 1.002 1.004 1.007 SW 7,1 45,1 0,0
14-11-2019 9,6     14,2     17,3 7,7 44 63 81 1.000 1.003 1.010 WSW 5,5 40,2 0,0
13-11-2019 10,9     14,6     20,3 9,4 43 75 92 1.006 1.009 1.012 SW 4,3 35,4 4,4 0,86 2,00
12-11-2019 9,4     13,8     18,8 9,4 33 49 65 1.010 1.012 1.013 SW 4,7 30,6 0,0
11-11-2019 8,8     13,5     16,7 7,9 38 48 60 1.011 1.013 1.015 SW 5,0 37,0 0,0
10-11-2019 11,9     14,1     16,3 4,4 39 50 70 1.011 1.012 1.014 W 8,4 48,3 0,0
09-11-2019 12,5     15,2     18,4 5,9 34 44 71 1.014 1.017 1.020 WSW 9,0 56,3 0,0
08-11-2019 11,1     14,2     16,8 5,7 34 44 58 1.010 1.013 1.017 W 10,8 49,9 0,0
07-11-2019 11,1     16,6     21,6 10,5 29 53 74 1.008 1.010 1.014 SW 6,4 38,6 0,0
06-11-2019 13,9     16,6     20,8 6,9 36 48 61 1.012 1.013 1.014 SW 7,6 45,1 0,0
05-11-2019 16,1     18,0     20,7 4,6 40 49 57 1.006 1.009 1.012 WSW 12,7 56,3 0,0
04-11-2019 18,9     21,6     25,6 6,7 40 51 63 1.006 1.009 1.012 WSW 11,4 49,9 0,0
03-11-2019 17,9     21,4     24,4 6,5 44 51 61 1.002 1.005 1.011 WSW 10,3 56,3 0,0
02-11-2019 19,4     23,1     26,3 6,9 43 55 62 1.005 1.009 1.013 WSW 9,2 40,2 0,0
01-11-2019 18,2     22,8     26,9 8,7 49 63 76 1.014 1.017 1.020 SW 6,6 35,4 0,0
31-10-2019 18,5     21,7     26,8 8,3 46 64 75 1.019 1.020 1.021 SO 4,9 25,7 0,0
30-10-2019 13,4     18,7     23,9 10,5 61 80 92 1.019 1.020 1.022 SW 2,4 12,9 0,0
29-10-2019 13,4     18,3     25,0 11,6 60 79 91 1.015 1.017 1.019 SW 1,4 12,9 0,0
28-10-2019 13,0     16,8     23,1 10,1 64 87 96 1.016 1.018 1.020 SW 1,4 19,3 0,2
27-10-2019 13,4     17,1     21,2 7,8 74 87 95 1.020 1.021 1.023 SW 2,9 20,9 0,0
26-10-2019 11,8     16,3     21,6 9,8 64 81 95 1.020 1.021 1.023 SW 2,6 16,1 0,0
25-10-2019 13,2     17,4     23,9 10,7 49 67 82 1.020 1.022 1.023 SW 3,4 20,9 0,0
24-10-2019 10,3     15,6     21,0 10,7 47 65 86 1.012 1.016 1.022 SW 5,5 25,7 0,0
23-10-2019 9,8     13,4     19,6 9,8 50 77 93 1.006 1.009 1.012 SW 3,5 40,2 2,4
22-10-2019 12,2     14,8     16,7 4,5 70 88 97 1.006 1.011 1.017 W 4,0 35,4 84,2
21-10-2019 12,4     14,2     16,6 4,2 56 81 95 1.015 1.017 1.019 SW 1,6 24,1 6,6
20-10-2019 14,6     20,5     23,7 9,1 40 62 76 1.005 1.009 1.015 SW 6,3 37,0 0,0
19-10-2019 14,9     20,9     26,1 11,2 45 60 76 1.006 1.010 1.013 SW 4,3 33,8 0,0
18-10-2019 16,9     21,6     27,6 10,7 42 58 73 1.013 1.015 1.017 SW 2,7 24,1 0,0
17-10-2019 14,2     19,9     26,6 12,4 30 52 68 1.015 1.017 1.018 SW 2,9 19,3 0,0
Últims 13 mesos disponibles
10/2019 9,8 15,2 18,9 19,6 16,6 24,5 32,8 23,0 46 73 90 1.009 1.016 1.022 SW 3,4 59,5 95,2
09/2019 14,0 18,9 22,3 22,6 20,2 26,1 33,9 19,9 57 82 96 1.010 1.017 1.023 SW 4,7 67,6 129,0
08/2019 18,1 21,2 26,6 26,2 26,2 31,2 38,4 20,3 44 71 84 1.009 1.015 1.019 SW 5,0 51,5 109,0
07/2019 19,4 21,3 26,5 26,7 28,0 31,9 39,4 20,0 41 64 80 1.005 1.013 1.020 SW 5,8 74,0 0,4
06/2019 12,1 16,5 22,0 22,4 21,3 27,4 36,2 24,1 39 63 83 1.008 1.015 1.021 NE 5,5 45,1 1,0
05/2019 8,2 12,9 21,4 18,3 18,8 23,0 29,9 21,7 52 69 84 1.005 1.015 1.024 SW 5,2 59,5 11,4
04/2019 7,4 10,4 13,1 14,6 13,9 18,7 27,8 20,4 38 72 97 1.002 1.013 1.019 SW 5,8 56,3 199,2
03/2019 6,1 8,7 14,6 14,0 12,8 19,1 27,7 21,6 37 62 93 1.010 1.023 1.030 SW 4,6 57,9 58,0
02/2019 2,8 6,8 11,4 11,2 12,1 15,7 23,3 20,5 35 66 87 996 1.024 1.034 SW 4,7 64,4 0,0
01/2019 1,2 6,6 14,1 10,8 10,6 15,9 20,9 19,7 38 64 90 1.003 1.020 1.031 SW 4,6 59,5 6,4
12/2018 4,8 8,2 11,6 12,6 12,1 18,5 23,9 19,1 49 74 95 1.009 1.025 1.031 SW 2,7 53,1 36,6
11/2018 6,4 11,3 16,2 14,7 13,9 18,6 24,2 17,8 48 73 95 1.001 1.015 1.023 SW 3,7 69,2 133,8
10/2018 8,8 14,6 18,9 18,4 14,4 22,8 27,7 18,9 40 74 92 1.000 1.014 1.025 4,0 62,8 94,6
Tots els anys disponibles
2018 0,7 13,7 25,9 18,2 7,8 22,8 36,4 35,7 40 74 95 1.000 1.019 1.031 SW 5,0 72,4 601,8
2017 0,6 13,3 26,7 18,1 8,1 22,9 37,1 36,5 4,9 77,2 633,0
2016 1,3 13,8 24,5 18,3 7,8 22,8 39,1 37,8 5,5 70,8 446,8
2015 0,8 14,4 25,3 18,9 8,3 23,6 40,7 39,9 5,1 99,8 490,0
Temperatura (°C)
Humitat relativa (%)
Velocitat del vent i ràfega màxima (km/h)
Direcció del vent (°)
Pressió (hPa)
Precipitació (mm)
Nota sobre les dades: s'avisa a l'usuari de la provisionalitat i no oficialitat d'aquestes dades
Logo AVAMET blanc
Web allotjada a Sollutia
Llicència de Creative CommonsLa web d'AVAMET i els seus continguts estan subjectes a una llicència de
Reconeixement - No Comercial - Compartir igual
Últimes estacions: Xàbia - Alt de la Granadella (Soci), Villena - Sierra de Salinas (Soci), Sueca - Centre (Inforatge), Xàbia - La Plana (Soci), Banyeres de Mariola - Molí Sol (Soci), Villena - Villa Ventín (Soci), Benissa - Convent (Soci), - - -